Flight Track Log - Related Links

Times and Time Zones

All times are in EDT time to prevent confusion due to time zone crossing. See the AWE1201 flight status page for this flight to view local times or setup timezone preferences in your user account.

Time Position Orientation Groundspeed Altitude Reporting Facility
EDT Latitude Longitude Course Direction KTS MPH feet Rate Location/Type
Sat 11:54:34 AM 35.1886 -80.9358 165° South 172 198 1,800  Level Atlanta Center
Sat 11:55:05 AM 35.1678 -80.9339 176° South 162 186 2,700 1,435 Climbing Atlanta Center
Sat 11:56:06 AM 35.1092 -80.9236 172° South 227 261 4,000 1,784 Climbing Atlanta Center
Sat 11:56:56 AM 35.0567 -80.9128 170° South 249 287 6,000 2,455 Climbing Atlanta Center
Sat 11:57:00 AM 34.9452 -80.5826 175° South  Level Estimated
Sat 11:57:56 AM 34.9711 -80.9058 176° South 273 314 8,500  Level Atlanta Center
Sat 11:58:00 AM 34.8554 -80.4610 180° South  Level Estimated
Sat 11:58:56 AM 34.8917 -80.9039 179° South 312 359 10,600  Level Atlanta Center
Sat 11:59:00 AM 34.7655 -80.3396 165° South  Level Estimated
Sat 11:59:56 AM 34.8039 -80.9019 179° South 312 359 12,100  Level Atlanta Center
Sat 12:02:11 PM 34.5861 -80.8903 177° South 370 426 16,500 1,877 Climbing Jacksonville Center
Sat 12:03:11 PM 34.4839 -80.8775 174° South 378 435 18,200 1,650 Climbing Jacksonville Center
Sat 12:04:11 PM 34.3789 -80.8344 161° South 384 442 19,800 900 Climbing Jacksonville Center
Sat 12:05:11 PM 34.2736 -80.7894 161° South 397 457 20,000 300 Climbing Jacksonville Center
Sat 12:06:11 PM 34.1683 -80.7317 156° South 403 464 20,400 500 Climbing Jacksonville Center
Sat 12:07:11 PM 34.0672 -80.6739 155° Southeast 403 464 21,000 550 Climbing Jacksonville Center
Sat 12:08:11 PM 33.9619 -80.6192 157° South 403 464 21,500 500 Climbing Jacksonville Center
Sat 12:09:11 PM 33.8567 -80.5642 157° South 403 464 22,000 300 Climbing Jacksonville Center
Sat 12:10:11 PM 33.7469 -80.5047 156° South 414 476 22,100 500 Climbing Jacksonville Center
Sat 12:11:11 PM 33.6394 -80.4478 156° South 419 482 23,000 1,050 Climbing Jacksonville Center
Sat 12:12:11 PM 33.5278 -80.3886 156° South 424 488 24,200 1,300 Climbing Jacksonville Center
Sat 12:13:11 PM 33.4181 -80.3294 156° South 430 495 25,600 1,200 Climbing Jacksonville Center
Sat 12:14:11 PM 33.3019 -80.2681 156° South 435 501 26,600 1,250 Climbing Jacksonville Center
Sat 12:15:11 PM 33.1733 -80.1975 155° Southeast 459 528 28,100 1,200 Climbing Jacksonville Center
Sat 12:16:11 PM 33.0486 -80.1319 156° South 484 557 29,000 900 Climbing Jacksonville Center
Sat 12:17:11 PM 32.9522 -80.0186 135° Southeast 484 557 29,900 950 Climbing Jacksonville Center
Sat 12:18:11 PM 32.9050 -79.8764 112° Southeast 455 524 30,900 550 Climbing Jacksonville Center
Sat 12:19:11 PM 32.8597 -79.7297 110° East 455 524 31,000 50 Climbing Jacksonville Center
Sat 12:20:11 PM 32.8142 -79.5831 110° East 455 524 31,000  Level Jacksonville Center
Sat 12:21:11 PM 32.7686 -79.4389 111° Southeast 460 529 31,000  Level Jacksonville Center
Sat 12:22:11 PM 32.7228 -79.2925 110° East 470 541 31,000  Level Jacksonville Center
Sat 12:23:11 PM 32.6747 -79.1464 111° Southeast 470 541 31,000  Level Jacksonville Center
Sat 12:24:11 PM 32.6286 -79.0003 111° Southeast 470 541 31,000 -100 Level Jacksonville Center
Sat 12:25:11 PM 32.5822 -78.8544 111° Southeast 470 541 30,800 -350 Descending Jacksonville Center
Sat 12:26:11 PM 32.5358 -78.7111 111° Southeast 470 541 30,300 -400 Descending Jacksonville Center
Sat 12:27:11 PM 32.4872 -78.5656 112° Southeast 470 541 30,000 -150 Descending Jacksonville Center
Sat 12:28:11 PM 32.4056 -78.4367 127° Southeast 477 549 30,000  Level Jacksonville Center
Sat 12:29:11 PM 32.2803 -78.3836 160° South 455 524 30,000  Level Jacksonville Center
Sat 12:30:11 PM 32.1419 -78.3636 173° South 469 540 30,000  Level Jacksonville Center
Sat 12:31:11 PM 32.0075 -78.3383 171° South 476 548 30,000  Level Jacksonville Center
Sat 12:32:11 PM 31.8667 -78.3136 172° South 496 571 30,000  Level Jacksonville Center
Sat 12:33:11 PM 31.7322 -78.2883 171° South 496 571 30,000  Level Jacksonville Center
Sat 12:34:11 PM 31.5975 -78.2586 169° South 501 577 30,000  Level Jacksonville Center
Sat 12:35:11 PM 31.4608 -78.2311 170° South 501 577 30,000  Level Jacksonville Center
Sat 12:36:11 PM 31.3244 -78.2089 172° South 501 577 30,000  Level Jacksonville Center
Sat 12:37:11 PM 31.1856 -78.1819 171° South 501 577 30,000  Level Jacksonville Center
Sat 12:38:11 PM 31.0508 -78.1522 169° South 506 582 30,000  Level Jacksonville Center
Sat 12:39:11 PM 30.9356 -78.1411 175° South 495 570 30,000  Level Jacksonville Center
Sat 12:40:11 PM 30.7906 -78.1144 171° South 495 570 30,000  Level Jacksonville Center
Sat 12:41:11 PM 30.6561 -78.0875 170° South 495 570 30,000  Level Jacksonville Center
Sat 12:42:11 PM 30.5214 -78.0628 171° South 495 570 30,000  Level Jacksonville Center
Sat 12:44:30 PM 30.1986 -78.0078 172° South 482 555 30,000  Level Miami Center
Sat 12:45:30 PM 30.0675 -77.9872 172° South 482 555 30,000  Level Miami Center
Sat 12:46:30 PM 29.9281 -77.9594 170° South 495 570 30,000  Level Miami Center
Sat 12:47:30 PM 29.7883 -77.9342 171° South 504 580 30,000  Level Miami Center
Sat 12:48:30 PM 29.6447 -77.9042 170° South 504 580 30,000  Level Miami Center
Sat 12:49:30 PM 29.5011 -77.8764 170° South 511 588 30,000 -50 Level Miami Center
Sat 12:50:30 PM 29.3739 -77.8586 173° South 509 586 29,900  Descending Miami Center
Sat 12:51:30 PM 29.2303 -77.8311 171° South 496 571 30,000 50 Climbing Miami Center
Sat 12:52:30 PM 29.1008 -77.8086 171° South 499 574 30,000  Level Miami Center
Sat 12:53:30 PM 28.9614 -77.7839 171° South 504 580 30,000  Level Miami Center
Sat 12:54:30 PM 28.8319 -77.7614 171° South 504 580 30,000  Level Miami Center
Sat 12:55:30 PM 28.6883 -77.7367 171° South 504 580 30,000  Level Miami Center
Sat 12:56:30 PM 28.5528 -77.7119 171° South 504 580 30,000  Level Miami Center
Sat 12:57:30 PM 28.4192 -77.6894 172° South 504 580 30,000  Level Miami Center
Sat 12:58:30 PM 28.2794 -77.6650 171° South 499 574 30,000  Level Miami Center
Sat 12:59:30 PM 28.1483 -77.6194 163° South 504 580 30,000  Level Miami Center
Sat 01:00:30 PM 28.0381 -77.5314 145° Southeast 482 555 30,000  Level Miami Center
Sat 01:01:30 PM 27.9550 -77.4417 136° Southeast 493 567 30,000  Level Miami Center
Sat 01:02:30 PM 27.8447 -77.3142 134° Southeast 483 556 30,000  Level Miami Center
Sat 01:03:30 PM 27.7511 -77.1967 132° Southeast 473 544 30,000  Level Miami Center
Sat 01:04:30 PM 27.6553 -77.0836 134° Southeast 489 563 30,000  Level Miami Center
Sat 01:05:30 PM 27.5592 -76.9733 134° Southeast 481 554 30,000  Level Miami Center
Sat 01:06:30 PM 27.4842 -76.8889 135° Southeast 487 560 30,000  Level Miami Center
Sat 01:07:30 PM 27.3817 -76.7744 135° Southeast 482 555 30,000  Level Miami Center
Sat 01:08:30 PM 27.2833 -76.6531 132° Southeast 493 567 30,000  Level Miami Center
Sat 01:09:30 PM 27.1892 -76.5408 133° Southeast 500 575 30,000  Level Miami Center
Sat 01:10:30 PM 27.0908 -76.4292 135° Southeast 492 566 30,000  Level Miami Center
Sat 01:11:30 PM 26.9942 -76.3178 134° Southeast 486 559 30,000 100 Level Miami Center
Sat 01:12:30 PM 26.8997 -76.2133 135° Southeast 480 552 30,200 500 Climbing Miami Center
Sat 01:13:30 PM 26.8053 -76.0997 133° Southeast 496 571 31,000 400 Climbing Miami Center
Sat 01:14:30 PM 26.7106 -75.9933 135° Southeast 490 564 31,000  Level Miami Center
Sat 01:15:30 PM 26.6139 -75.8825 134° Southeast 484 557 31,000  Level Miami Center
Sat 01:16:30 PM 26.5169 -75.7742 135° Southeast 489 563 31,000  Level Miami Center
Sat 01:17:30 PM 26.4200 -75.6636 134° Southeast 489 563 31,000  Level Miami Center
Sat 01:18:30 PM 26.3292 -75.5603 134° Southeast 484 557 31,000  Level Miami Center
Sat 01:19:30 PM 26.2322 -75.4525 135° Southeast 484 557 31,000  Level Miami Center
Sat 01:20:30 PM 26.1328 -75.3450 136° Southeast 490 564 31,000  Level Miami Center
Sat 01:21:30 PM 26.0522 -75.2442 132° Southeast 472 543 31,000  Level Miami Center
Sat 01:22:30 PM 25.9592 -75.1392 135° Southeast 465 535 31,000  Level Miami Center
Sat 01:23:30 PM 25.8514 -75.0297 138° Southeast 478 550 31,000 50 Level Miami Center
Sat 01:24:30 PM 25.7600 -74.9228 133° Southeast 488 562 31,100  Climbing Miami Center
Sat 01:25:30 PM 25.6539 -74.8047 135° Southeast 488 562 31,000 -50 Descending Miami Center
Sat 01:26:30 PM 25.5564 -74.6958 135° Southeast 482 555 31,000  Level Miami Center
Sat 01:27:30 PM 25.4628 -74.5939 135° Southeast 487 560 31,000  Level Miami Center
Sat 01:28:30 PM 25.3736 -74.4944 135° Southeast 477 549 31,000  Level Miami Center
Sat 01:29:30 PM 25.2819 -74.3858 133° Southeast 477 549 31,000  Level Miami Center
Sat 01:30:30 PM 25.1903 -74.2797 134° Southeast 476 548 31,000  Level Miami Center
Sat 01:31:30 PM 25.1006 -74.1739 133° Southeast 476 548 31,000  Level Miami Center
Sat 01:32:30 PM 25.0108 -74.0703 134° Southeast 469 540 31,000  Level Miami Center
Sat 01:33:30 PM 24.9231 -73.9647 133° Southeast 469 540 31,000  Level Miami Center
Sat 01:34:30 PM 24.8333 -73.8614 134° Southeast 469 540 31,000  Level Miami Center
Sat 01:35:30 PM 24.7456 -73.7608 134° Southeast 464 534 31,000  Level Miami Center
Sat 01:36:30 PM 24.6578 -73.6556 133° Southeast 464 534 31,000  Level Miami Center
Sat 01:37:30 PM 24.5656 -73.5528 135° Southeast 464 534 31,000  Level Miami Center
Sat 01:38:30 PM 24.4775 -73.4433 131° Southeast 464 534 31,000  Level Miami Center
Sat 01:39:30 PM 24.3914 -73.3386 132° Southeast 464 534 31,000  Level Miami Center
Sat 01:40:30 PM 24.3139 -73.2450 132° Southeast 464 534 31,000  Level Miami Center
Sat 01:41:30 PM 24.2256 -73.1358 132° Southeast 466 536 31,000  Level Miami Center
Sat 01:42:30 PM 24.1478 -73.0336 130° Southeast 460 529 31,000  Level Miami Center
Sat 01:43:30 PM 24.0594 -72.9269 132° Southeast 460 529 31,000  Level Miami Center
Sat 01:44:30 PM 23.9689 -72.8208 133° Southeast 465 535 31,000  Level Miami Center
Sat 01:45:30 PM 23.8758 -72.7033 131° Southeast 465 535 31,000  Level Miami Center
Sat 01:46:30 PM 23.8103 -72.6033 126° Southeast 465 535 31,000  Level Miami Center
Sat 01:47:30 PM 23.7358 -72.4811 124° Southeast 465 535 31,000 50 Level Miami Center
Sat 01:48:30 PM 23.6592 -72.3636 125° Southeast 470 541 31,100  Climbing Miami Center
Sat 01:49:30 PM 23.5828 -72.2531 127° Southeast 465 535 31,000 -50 Descending Miami Center
Sat 01:50:30 PM 23.5100 -72.1311 123° Southeast 465 535 31,000  Level Miami Center
Sat 01:51:30 PM 23.4353 -72.0164 125° Southeast 465 535 31,000  Level Miami Center
Sat 01:52:30 PM 23.3608 -71.9061 126° Southeast 460 529 31,000  Level Miami Center
Sat 01:53:30 PM 23.2858 -71.7892 125° Southeast 460 529 31,000 50 Level Miami Center
Sat 01:54:30 PM 23.2089 -71.6725 126° Southeast 465 535 31,100  Climbing Miami Center
Sat 01:55:30 PM 23.1336 -71.5536 125° Southeast 470 541 31,000 -50 Descending Miami Center
Sat 01:56:30 PM 23.0544 -71.4397 127° Southeast 470 541 31,000  Level Miami Center
Sat 01:57:30 PM 22.9792 -71.3211 125° Southeast 470 541 31,000  Level Miami Center
Sat 01:58:30 PM 22.9061 -71.2050 124° Southeast 464 534 31,000 50 Level Miami Center
Sat 01:59:30 PM 22.8308 -71.0933 126° Southeast 464 534 31,100 500 Climbing Miami Center
Sat 02:00:30 PM 22.7556 -70.9775 125° Southeast 464 534 32,000 850 Climbing Miami Center
Sat 02:01:30 PM 22.6778 -70.8617 126° Southeast 464 534 32,800 900 Climbing Miami Center
Sat 02:02:30 PM 22.6022 -70.7461 125° Southeast 464 534 33,800 950 Climbing Miami Center
Sat 02:03:30 PM 22.5247 -70.6331 127° Southeast 464 534 34,700 950 Climbing Miami Center
Sat 02:04:30 PM 22.4492 -70.5200 126° Southeast 464 534 35,700 850 Climbing Miami Center
Sat 02:05:30 PM 22.3664 -70.3939 125° Southeast 464 534 36,400 650 Climbing Miami Center
Sat 02:06:30 PM 22.2886 -70.2789 126° Southeast 464 534 37,000 300 Climbing Miami Center
Sat 02:07:30 PM 22.2106 -70.1664 127° Southeast 464 534 37,000  Level Miami Center
Sat 02:08:30 PM 22.1369 -70.0539 125° Southeast 464 534 37,000  Level Miami Center
Sat 02:09:30 PM 22.0589 -69.9414 127° Southeast 464 534 37,000  Level Miami Center
Sat 02:10:30 PM 21.9806 -69.8272 126° Southeast 464 534 37,000  Level Miami Center
Sat 02:11:30 PM 21.9025 -69.7153 127° Southeast 464 534 37,000  Level Miami Center
Sat 02:12:30 PM 21.8286 -69.6075 126° Southeast 456 525 37,000  Level Miami Center
Sat 02:13:30 PM 21.7522 -69.4956 126° Southeast 461 531 37,000  Level Miami Center
Sat 02:14:30 PM 21.6761 -69.3839 126° Southeast 461 531 37,000  Level Miami Center
Sat 02:15:30 PM 21.5997 -69.2722 126° Southeast 461 531 37,000  Level Miami Center
Sat 02:16:30 PM 21.5211 -69.1586 127° Southeast 461 531 37,000 50 Level Miami Center
Sat 02:17:30 PM 21.4428 -69.0519 128° Southeast 461 531 37,100  Climbing Miami Center
Sat 02:18:30 PM 21.3661 -68.9386 126° Southeast 461 531 37,000 -50 Descending Miami Center
Sat 02:19:30 PM 21.2914 -68.8253 125° Southeast 461 531 37,000  Level Miami Center
Sat 02:20:30 PM 21.2150 -68.7164 127° Southeast 461 531 37,000  Level Miami Center
Sat 02:21:30 PM 21.1319 -68.6061 129° Southeast 466 536 37,000  Level Miami Center
Sat 02:22:30 PM 21.0614 -68.4950 124° Southeast 466 536 37,000  Level Miami Center
Sat 02:23:30 PM 20.9808 -68.3892 129° Southeast 466 536 37,000  Level Miami Center
Sat 02:24:30 PM 20.9058 -68.2786 126° Southeast 461 531 37,000  Level Miami Center
Sat 02:25:30 PM 20.8372 -68.1678 124° Southeast 461 531 37,000  Level Miami Center
Sat 02:26:30 PM 20.7722 -68.0481 120° Southeast 461 531 37,000  Level Miami Center
Sat 02:27:30 PM 20.7072 -67.9306 121° Southeast 461 531 37,000  Level Miami Center
Sat 02:28:30 PM 20.6442 -67.8131 120° Southeast 461 531 37,000  Level Miami Center
Sat 02:29:30 PM 20.5767 -67.6917 121° Southeast 461 531 37,000  Level Miami Center
Sat 02:30:30 PM 20.5075 -67.5772 123° Southeast 456 525 37,000  Level Miami Center
Sat 02:31:00 PM 20.4833 -67.5167 113° Southeast 460 529 37,000  Level San Juan Center
Sat 02:32:01 PM 20.4167 -67.4000 121° Southeast 460 529 37,000  Level San Juan Center
Sat 02:33:01 PM 20.3500 -67.2833 121° Southeast 460 529 37,000  Level San Juan Center
Sat 02:34:01 PM 20.2833 -67.1667 121° Southeast 460 529 37,000  Level San Juan Center
Sat 02:35:02 PM 20.2333 -67.0500 115° Southeast 450 518 37,000 -496 Level San Juan Center
Sat 02:36:02 PM 20.1667 -66.9167 118° Southeast 450 518 36,000 -1,000 Descending San Juan Center
Sat 02:37:02 PM 20.1000 -66.8000 121° Southeast 460 529 35,000 -496 Descending San Juan Center
Sat 02:38:03 PM 20.0333 -66.6833 121° Southeast 460 529 35,000  Level San Juan Center
Sat 02:39:03 PM 19.9667 -66.5667 121° Southeast 460 529 35,000 -200 Level San Juan Center
Sat 02:40:03 PM 19.9000 -66.4667 125° Southeast 450 518 34,600 -1,200 Descending San Juan Center
Sat 02:41:03 PM 19.8333 -66.3500 121° Southeast 450 518 32,600 -1,800 Descending San Juan Center
Sat 02:42:03 PM 19.7833 -66.2333 114° Southeast 450 518 31,000 -793 Descending San Juan Center
Sat 02:43:04 PM 19.7167 -66.1167 121° Southeast 460 529 31,000  Level San Juan Center
Sat 02:44:04 PM 19.6500 -66.0000 121° Southeast 450 518 31,000  Level San Juan Center
Sat 02:45:04 PM 19.5833 -65.8833 121° Southeast 460 529 31,000  Level San Juan Center
Sat 02:46:05 PM 19.5167 -65.7667 121° Southeast 450 518 31,000  Level San Juan Center
Sat 02:47:05 PM 19.4500 -65.6500 121° Southeast 450 518 31,000  Level San Juan Center
Sat 02:48:05 PM 19.3833 -65.5333 121° Southeast 450 518 31,000 50 Level San Juan Center
Sat 02:49:06 PM 19.3167 -65.4167 121° Southeast 450 518 31,100 50 Climbing San Juan Center
Sat 02:50:06 PM 19.2500 -65.3167 125° Southeast 460 529 31,100 -250 Level San Juan Center
Sat 02:51:06 PM 19.1833 -65.2000 121° Southeast 460 529 30,600 -750 Descending San Juan Center
Sat 02:52:06 PM 19.1167 -65.0833 121° Southeast 460 529 29,600 -744 Descending San Juan Center
Sat 02:53:07 PM 19.0500 -64.9500 118° Southeast 460 529 29,100 -248 Descending San Juan Center
Sat 02:54:07 PM 18.9833 -64.8333 121° Southeast 460 529 29,100  Level San Juan Center
Sat 02:55:07 PM 18.9167 -64.7167 121° Southeast 470 541 29,100  Level San Juan Center
Sat 02:56:08 PM 18.8500 -64.6167 125° Southeast 460 529 29,100  Level San Juan Center
Sat 02:57:08 PM 18.7833 -64.4833 118° Southeast 470 541 29,100  Level San Juan Center
Sat 02:58:08 PM 18.7167 -64.3667 121° Southeast 470 541 29,100  Level San Juan Center
Sat 02:59:09 PM 18.6500 -64.2667 125° Southeast 460 529 29,100  Level San Juan Center
Sat 03:00:09 PM 18.5833 -64.1333 118° Southeast 460 529 29,100 -50 Level San Juan Center
Sat 03:01:09 PM 18.5167 -64.0333 125° Southeast 460 529 29,000 -446 Descending San Juan Center
Sat 03:02:10 PM 18.4500 -63.9167 121° Southeast 460 529 28,200 -893 Descending San Juan Center
Sat 03:03:10 PM 18.3833 -63.8000 121° Southeast 460 529 27,200 -1,000 Descending San Juan Center
Sat 03:04:10 PM 18.3167 -63.6833 121° Southeast 440 506 26,200 -1,041 Descending San Juan Center
Sat 03:05:11 PM 18.2500 -63.5667 121° Southeast 450 518 25,100 -545 Descending San Juan Center
Sat 03:06:11 PM 18.1833 -63.4500 121° Southeast 440 506 25,100  Level San Juan Center
Sat 03:07:11 PM 18.1167 -63.3500 125° Southeast 440 506 25,100 -99 Level San Juan Center
Sat 03:08:12 PM 18.0500 -63.2500 125° Southeast 440 506 24,900 -595 Descending San Juan Center
Sat 03:09:12 PM 17.9833 -63.1333 121° Southeast 440 506 23,900 -950 Descending San Juan Center
Sat 03:10:12 PM 17.9167 -63.0333 125° Southeast 420 483 23,000 -446 Descending San Juan Center
Sat 03:11:13 PM 17.8667 -62.9167 114° Southeast 420 483 23,000  Level San Juan Center
Sat 03:12:13 PM 17.8000 -62.8167 125° Southeast 420 483 23,000  Level San Juan Center
Sat 03:13:13 PM 17.7333 -62.7167 125° Southeast 420 483 23,000  Level San Juan Center
Sat 03:14:13 PM 17.6833 -62.6167 118° Southeast 410 472 23,000  Level San Juan Center
Sat 03:15:14 PM 17.6167 -62.5167 125° Southeast 420 483 23,000  Level San Juan Center
Sat 03:17:00 PM 17.4903 -62.3271 125° Southeast  Level FlightAware Approximate
Sat 03:24:00 PM 17.1367 -61.7927 122° Southeast  Level Estimated
Sat 03:25:00 PM 17.1367 -61.7927 122° Southeast  Level Estimated
Sat 03:26:00 PM 17.1367 -61.7927 122° Southeast  Level Estimated
Sat 03:27:00 PM 17.1367 -61.7927 122° Southeast  Level Estimated
Sat 03:28:00 PM 17.1367 -61.7927 122° Southeast  Level Estimated
Sat 03:29:00 PM 17.1367 -61.7927 122° Southeast  Level Estimated
Sat 03:30:00 PM 17.1367 -61.7927 122° Southeast  Level Estimated
Sat 03:31:00 PM 17.1367 -61.7927 122° Southeast  Level Estimated
Sat 03:32:00 PM 17.1367 -61.7927 122° Southeast  Level Estimated
Sat 03:33:00 PM 17.1367 -61.7927 122° Southeast  Level Estimated
Sat 03:34:00 PM 17.1367 -61.7927 122° Southeast  Level Estimated
Sat 03:35:00 PM 17.1367 -61.7927 122° Southeast  Level Estimated
Sat 03:36:00 PM 17.1367 -61.7927 122° Southeast  Level Estimated
Sat 03:37:00 PM 17.1367 -61.7927 122° Southeast  Level Estimated
Sat 03:38:00 PM 17.1367 -61.7927 122° Southeast  Level Estimated
Sat 03:39:00 PM 17.1367 -61.7927 122° Southeast  Level Estimated
Sat 03:40:00 PM 17.1367 -61.7927 122° Southeast  Level Estimated
Sat 03:41:00 PM 17.1367 -61.7927 122° Southeast  Level Estimated
Sat 03:42:00 PM 17.1367 -61.7927 122° Southeast  Level Estimated
Sat 03:43:00 PM 17.1367 -61.7927 122° Southeast  Level Estimated
Sat 03:44:00 PM 17.1367 -61.7927 122° Southeast  Level Estimated

Login

Don't have an account? Register now (free) for customized features, flight alerts, and more!